createdAt,value
2022-09-10T00:02:01.996Z,20.14
2022-09-10T00:04:28.898Z,20.18
2022-09-10T00:06:55.776Z,20.31
2022-09-10T00:09:23.258Z,20.32
2022-09-10T00:11:50.128Z,19.95
2022-09-10T00:14:23.969Z,19.96
2022-09-10T00:16:51.254Z,19.97
2022-09-10T00:19:18.472Z,19.86
2022-09-10T00:21:45.575Z,19.89
2022-09-10T00:24:12.724Z,19.75
2022-09-10T00:26:40.066Z,19.85
2022-09-10T00:29:09.714Z,19.83
2022-09-10T00:31:37.645Z,19.99
2022-09-10T00:34:05.831Z,19.99
2022-09-10T00:36:36.660Z,19.88
2022-09-10T00:39:06.853Z,19.84
2022-09-10T00:41:34.942Z,19.90
2022-09-10T00:44:07.483Z,19.95
2022-09-10T00:46:50.972Z,20.00
2022-09-10T00:49:31.464Z,19.89
2022-09-10T00:51:58.936Z,19.82
2022-09-10T00:54:28.339Z,19.81
2022-09-10T00:56:59.755Z,19.77
2022-09-10T00:59:28.013Z,19.67
2022-09-10T01:01:55.988Z,19.55
2022-09-10T01:04:23.072Z,19.48
2022-09-10T01:06:52.078Z,19.48
2022-09-10T01:09:21.425Z,19.61
2022-09-10T01:12:09.148Z,19.64
2022-09-10T01:15:05.163Z,19.59
2022-09-10T01:17:53.823Z,19.63
2022-09-10T01:20:35.835Z,19.79
2022-09-10T01:23:17.564Z,19.64
2022-09-10T01:26:25.325Z,19.67
2022-09-10T01:29:21.308Z,19.62
2022-09-10T01:32:12.458Z,19.72
2022-09-10T01:35:02.426Z,19.68
2022-09-10T01:37:37.147Z,19.57
2022-09-10T01:40:05.460Z,19.57
2022-09-10T01:42:32.692Z,19.43
2022-09-10T01:44:59.960Z,19.49
2022-09-10T01:47:45.020Z,19.50
2022-09-10T01:50:30.439Z,19.50
2022-09-10T01:53:11.449Z,19.67
2022-09-10T01:55:54.039Z,19.76
2022-09-10T01:58:29.354Z,19.70
2022-09-10T02:01:10.992Z,19.74
2022-09-10T02:03:40.167Z,19.72
2022-09-10T02:06:09.579Z,19.80
2022-09-10T02:08:40.025Z,19.80
2022-09-10T02:11:11.856Z,19.89
2022-09-10T02:13:39.286Z,19.73
2022-09-10T02:16:11.419Z,19.89
2022-09-10T02:18:40.128Z,19.95
2022-09-10T02:21:07.412Z,20.08
2022-09-10T02:23:44.416Z,20.01
2022-09-10T02:26:12.301Z,19.91
2022-09-10T02:28:39.103Z,19.74
2022-09-10T02:31:06.052Z,19.77
2022-09-10T02:33:32.764Z,19.77
2022-09-10T02:35:59.554Z,19.89
2022-09-10T02:38:26.528Z,19.68
2022-09-10T02:40:53.148Z,19.76
2022-09-10T02:43:20.211Z,19.81
2022-09-10T02:45:47.037Z,20.02
2022-09-10T02:48:13.724Z,20.07
2022-09-10T02:50:40.463Z,19.77
2022-09-10T02:53:07.296Z,19.86
2022-09-10T02:55:34.010Z,19.76
2022-09-10T02:58:00.687Z,19.84
2022-09-10T03:00:27.551Z,19.92
2022-09-10T03:03:00.909Z,19.84
2022-09-10T03:05:30.043Z,19.71
2022-09-10T03:07:57.244Z,19.73
2022-09-10T03:10:24.540Z,19.70
2022-09-10T03:12:52.253Z,19.70
2022-09-10T03:15:20.724Z,19.55
2022-09-10T03:17:47.624Z,19.48
2022-09-10T03:20:14.550Z,19.62
2022-09-10T03:22:41.368Z,19.51
2022-09-10T03:25:08.150Z,19.51
2022-09-10T03:27:35.216Z,19.54
2022-09-10T03:30:03.179Z,19.60
2022-09-10T03:32:32.114Z,19.61
2022-09-10T03:35:00.044Z,19.51
2022-09-10T03:37:26.901Z,19.62
2022-09-10T03:39:55.364Z,19.59
2022-09-10T03:42:22.131Z,19.36
2022-09-10T03:44:48.904Z,19.38
2022-09-10T03:47:15.684Z,19.45
2022-09-10T03:49:42.760Z,19.41
2022-09-10T03:52:12.768Z,19.35
2022-09-10T03:54:40.107Z,19.57
2022-09-10T03:57:06.790Z,19.51
2022-09-10T03:59:33.434Z,19.49
2022-09-10T04:02:00.228Z,19.26
2022-09-10T04:04:27.133Z,19.36
2022-09-10T04:06:54.069Z,19.40
2022-09-10T04:09:20.776Z,19.39
2022-09-10T04:11:47.546Z,19.85
2022-09-10T04:14:15.680Z,19.88
2022-09-10T04:16:42.447Z,19.78
2022-09-10T04:19:09.279Z,19.82
2022-09-10T04:21:35.964Z,19.63
2022-09-10T04:24:03.220Z,19.68
2022-09-10T04:26:30.030Z,19.66
2022-09-10T04:28:56.740Z,19.61
2022-09-10T04:31:23.499Z,19.79
2022-09-10T04:33:50.799Z,19.52
2022-09-10T04:36:17.604Z,19.55
2022-09-10T04:38:44.726Z,19.62
2022-09-10T04:41:12.273Z,19.69
2022-09-10T04:43:39.026Z,19.71
2022-09-10T04:46:05.812Z,19.74
2022-09-10T04:48:33.625Z,19.89
2022-09-10T04:51:15.690Z,19.82
2022-09-10T04:53:43.259Z,19.80
2022-09-10T04:56:10.254Z,20.03
2022-09-10T04:58:39.070Z,20.16
2022-09-10T05:01:07.149Z,20.39
2022-09-10T05:03:34.243Z,20.48
2022-09-10T05:06:01.056Z,20.76
2022-09-10T05:08:27.828Z,20.83
2022-09-10T05:10:54.566Z,21.06
2022-09-10T05:13:21.302Z,21.05
2022-09-10T05:15:48.089Z,21.44
2022-09-10T05:18:14.768Z,21.41
2022-09-10T05:20:43.566Z,21.18
2022-09-10T05:23:10.385Z,21.26
2022-09-10T05:25:37.749Z,21.55
2022-09-10T05:28:06.022Z,21.65
2022-09-10T05:30:33.162Z,21.74
2022-09-10T05:33:01.200Z,21.84
2022-09-10T05:35:29.141Z,22.19
2022-09-10T05:38:00.802Z,22.29
2022-09-10T05:40:28.958Z,22.45
2022-09-10T05:42:56.253Z,22.76
2022-09-10T05:45:23.638Z,22.62
2022-09-10T05:47:50.530Z,22.95
2022-09-10T05:50:17.908Z,23.06
2022-09-10T05:52:45.220Z,23.44
2022-09-10T05:55:12.479Z,23.21
2022-09-10T05:57:40.440Z,23.53
2022-09-10T06:00:10.963Z,23.50
2022-09-10T06:02:37.953Z,24.12
2022-09-10T06:05:05.134Z,24.69
2022-09-10T06:07:31.918Z,24.60
2022-09-10T06:09:58.644Z,24.71
2022-09-10T06:12:25.347Z,24.98
2022-09-10T06:14:52.828Z,25.60
2022-09-10T06:17:20.109Z,25.31
2022-09-10T06:19:47.077Z,25.54
2022-09-10T06:22:14.658Z,25.10
2022-09-10T06:24:41.426Z,25.13
2022-09-10T06:27:08.654Z,25.29
2022-09-10T06:29:36.896Z,25.97
2022-09-10T06:32:04.424Z,26.32
2022-09-10T06:34:31.513Z,26.84
2022-09-10T06:36:58.595Z,27.15
2022-09-10T06:39:25.311Z,26.46
2022-09-10T06:41:53.316Z,26.13
2022-09-10T06:44:22.469Z,25.85
2022-09-10T06:49:36.680Z,26.14
2022-09-10T06:52:03.690Z,26.39
2022-09-10T06:54:30.483Z,26.39
2022-09-10T06:56:58.192Z,26.95
2022-09-10T06:59:25.133Z,27.24
2022-09-10T07:01:51.965Z,26.76
2022-09-10T07:04:18.804Z,27.24
2022-09-10T07:06:46.768Z,27.60
2022-09-10T07:09:14.617Z,27.59
2022-09-10T07:11:41.999Z,27.79
2022-09-10T07:14:13.363Z,27.86
2022-09-10T07:16:44.805Z,27.40
2022-09-10T07:19:15.291Z,27.44
2022-09-10T07:21:42.174Z,27.20
2022-09-10T07:24:10.404Z,27.05
2022-09-10T07:26:37.055Z,27.88
2022-09-10T07:29:04.282Z,28.77
2022-09-10T07:31:34.098Z,29.31
2022-09-10T07:34:04.703Z,29.53
2022-09-10T07:36:31.834Z,29.36
2022-09-10T07:39:01.765Z,29.66
2022-09-10T07:41:30.053Z,28.89
2022-09-10T07:43:57.857Z,29.56
2022-09-10T07:46:25.915Z,30.20
2022-09-10T07:48:58.013Z,30.44
2022-09-10T07:51:26.519Z,30.14
2022-09-10T07:53:55.220Z,30.52
2022-09-10T07:56:25.876Z,30.41
2022-09-10T07:58:54.035Z,29.77
2022-09-10T08:01:21.609Z,29.79
2022-09-10T08:03:48.463Z,29.47
2022-09-10T08:06:16.022Z,29.73
2022-09-10T08:08:43.535Z,29.76
2022-09-10T08:11:16.712Z,30.00
2022-09-10T08:13:48.910Z,29.99
2022-09-10T08:16:26.958Z,29.08
2022-09-10T08:18:57.272Z,29.09
2022-09-10T08:21:25.142Z,29.99
2022-09-10T08:23:54.729Z,30.45
2022-09-10T08:26:23.809Z,30.28
2022-09-10T08:28:58.652Z,29.82
2022-09-10T08:31:26.652Z,29.80
2022-09-10T08:33:55.035Z,29.53
2022-09-10T08:36:24.532Z,29.76
2022-09-10T08:38:53.772Z,29.33
2022-09-10T08:41:41.090Z,29.70
2022-09-10T08:44:29.345Z,30.44
2022-09-10T08:47:20.162Z,29.81
2022-09-10T08:50:14.314Z,30.68
2022-09-10T08:52:57.164Z,31.29
2022-09-10T08:55:31.600Z,31.26
2022-09-10T08:58:04.750Z,31.09
2022-09-10T09:00:36.976Z,31.00
2022-09-10T09:03:25.301Z,31.85
2022-09-10T09:06:00.988Z,32.33
2022-09-10T09:08:34.804Z,32.48
2022-09-10T09:11:20.016Z,31.90
2022-09-10T09:14:08.747Z,31.76
2022-09-10T09:16:38.147Z,32.91
2022-09-10T09:19:17.270Z,32.13
2022-09-10T09:21:52.946Z,32.16
2022-09-10T09:24:57.918Z,32.27
2022-09-10T09:27:30.418Z,32.08
2022-09-10T09:30:02.874Z,31.96
2022-09-10T09:32:34.458Z,31.84
2022-09-10T09:35:25.744Z,32.29
2022-09-10T09:38:18.335Z,31.62
2022-09-10T09:40:51.681Z,31.35
2022-09-10T09:43:49.774Z,31.21
2022-09-10T09:46:21.415Z,32.07
2022-09-10T09:48:53.644Z,32.75
2022-09-10T09:51:21.270Z,32.33
2022-09-10T09:54:46.584Z,33.06
2022-09-10T09:57:00.093Z,32.18
2022-09-10T09:59:37.404Z,31.80
2022-09-10T10:02:20.346Z,31.49
2022-09-10T10:05:25.675Z,30.68
2022-09-10T10:07:52.838Z,31.23
2022-09-10T10:10:28.136Z,31.52
2022-09-10T10:12:55.673Z,31.30
2022-09-10T10:15:36.769Z,30.84
2022-09-10T10:18:35.884Z,31.37
2022-09-10T10:21:29.248Z,33.09
2022-09-10T10:23:55.979Z,32.69
2022-09-10T10:26:33.701Z,33.36
2022-09-10T10:29:15.646Z,31.78
2022-09-10T10:31:45.037Z,32.52
2022-09-10T10:34:37.516Z,33.21
2022-09-10T10:37:20.361Z,33.23
2022-09-10T10:40:03.795Z,33.36
2022-09-10T10:42:57.559Z,33.25
2022-09-10T10:45:43.613Z,33.32
2022-09-10T10:48:32.975Z,33.75
2022-09-10T10:51:20.013Z,32.81
2022-09-10T10:54:20.759Z,32.16
2022-09-10T10:57:10.406Z,32.05
2022-09-10T11:00:01.335Z,32.14
2022-09-10T11:02:36.473Z,32.50
2022-09-10T11:05:18.586Z,33.41
2022-09-10T11:07:46.763Z,33.30
2022-09-10T11:10:25.572Z,33.95
2022-09-10T11:13:24.674Z,34.88
2022-09-10T11:16:15.309Z,33.99
2022-09-10T11:18:47.675Z,33.74
2022-09-10T11:21:25.845Z,34.22
2022-09-10T11:23:56.654Z,34.59
2022-09-10T11:26:33.849Z,35.30
2022-09-10T11:29:45.862Z,35.19
2022-09-10T11:32:21.648Z,34.66
2022-09-10T11:35:01.899Z,34.37
2022-09-10T11:37:51.115Z,35.19
2022-09-10T11:40:28.846Z,35.60
2022-09-10T11:43:00.446Z,34.55
2022-09-10T11:45:43.435Z,34.98
2022-09-10T11:48:30.412Z,35.76
2022-09-10T11:51:12.750Z,35.33
2022-09-10T11:53:40.328Z,35.69
2022-09-10T11:56:22.925Z,35.50
2022-09-10T11:59:04.902Z,36.21
2022-09-10T12:01:55.110Z,35.89
2022-09-10T12:04:46.940Z,36.49
2022-09-10T12:07:17.629Z,36.66
2022-09-10T12:10:29.007Z,35.78
2022-09-10T12:12:55.773Z,35.71
2022-09-10T12:15:25.645Z,34.78
2022-09-10T12:17:59.883Z,34.96
2022-09-10T12:20:37.893Z,33.38
2022-09-10T12:23:06.109Z,33.35
2022-09-10T12:25:34.733Z,33.66
2022-09-10T12:28:07.772Z,33.49
2022-09-10T12:30:37.902Z,34.41
2022-09-10T12:33:13.553Z,34.49
2022-09-10T12:35:48.451Z,34.94
2022-09-10T12:38:43.231Z,34.94
2022-09-10T12:41:29.800Z,35.51
2022-09-10T12:44:00.391Z,35.59
2022-09-10T12:46:28.517Z,34.86
2022-09-10T12:48:58.276Z,34.48
2022-09-10T12:52:00.430Z,34.23
2022-09-10T12:54:41.356Z,34.00
2022-09-10T12:57:26.385Z,34.94
2022-09-10T13:00:02.295Z,35.49
2022-09-10T13:02:40.533Z,36.62
2022-09-10T13:05:19.356Z,36.45
2022-09-10T13:07:49.316Z,34.84
2022-09-10T13:10:27.014Z,34.68
2022-09-10T13:12:59.379Z,34.98
2022-09-10T13:15:30.126Z,34.99
2022-09-10T13:17:56.878Z,34.98
2022-09-10T13:20:26.319Z,34.90
2022-09-10T13:23:19.682Z,35.31
2022-09-10T13:25:48.228Z,37.06
2022-09-10T13:28:35.736Z,37.77
2022-09-10T13:31:05.143Z,38.28
2022-09-10T13:33:43.150Z,38.64
2022-09-10T13:36:24.431Z,37.10
2022-09-10T13:39:06.066Z,36.83
2022-09-10T13:42:02.190Z,37.97
2022-09-10T13:44:40.054Z,39.12
2022-09-10T13:47:15.213Z,39.67
2022-09-10T13:50:19.463Z,39.36
2022-09-10T13:52:49.407Z,42.05
2022-09-10T13:55:26.280Z,41.67
2022-09-10T13:57:56.629Z,41.19
2022-09-10T14:00:27.747Z,39.39
2022-09-10T14:02:57.323Z,38.69
2022-09-10T14:05:50.347Z,36.98
2022-09-10T14:08:26.690Z,35.82
2022-09-10T14:10:56.052Z,33.72
2022-09-10T14:13:29.984Z,33.96
2022-09-10T14:15:59.792Z,33.89
2022-09-10T14:18:37.663Z,33.86
2022-09-10T14:21:05.498Z,33.51
2022-09-10T14:23:32.567Z,33.52
2022-09-10T14:26:24.508Z,33.66
2022-09-10T14:28:54.636Z,32.95
2022-09-10T14:31:42.475Z,32.66
2022-09-10T14:34:33.789Z,32.71
2022-09-10T14:37:01.572Z,32.66
2022-09-10T14:39:28.547Z,32.54
2022-09-10T14:42:27.450Z,32.47
2022-09-10T14:44:54.504Z,32.31
2022-09-10T14:47:37.788Z,32.42
2022-09-10T14:50:28.668Z,32.50
2022-09-10T14:52:55.799Z,32.55
2022-09-10T14:55:24.217Z,32.42
2022-09-10T14:57:55.651Z,32.52
2022-09-10T15:00:23.737Z,32.41
2022-09-10T15:02:53.930Z,32.23
2022-09-10T15:05:20.803Z,32.28
2022-09-10T15:07:47.557Z,32.11
2022-09-10T15:10:14.546Z,32.17
2022-09-10T15:12:44.961Z,32.08
2022-09-10T15:15:17.565Z,32.04
2022-09-10T15:17:44.718Z,31.97
2022-09-10T15:20:17.026Z,32.16
2022-09-10T15:22:45.195Z,32.23
2022-09-10T15:25:38.713Z,32.11
2022-09-10T15:28:07.015Z,32.10
2022-09-10T15:30:35.889Z,32.10
2022-09-10T15:33:06.357Z,31.95
2022-09-10T15:35:33.134Z,31.80
2022-09-10T15:38:02.271Z,31.68
2022-09-10T15:40:29.058Z,31.69
2022-09-10T15:42:55.888Z,31.62
2022-09-10T15:45:22.627Z,31.60
2022-09-10T15:47:49.380Z,31.67
2022-09-10T15:50:17.035Z,31.63
2022-09-10T15:52:45.106Z,31.55
2022-09-10T15:55:12.543Z,31.42
2022-09-10T15:57:40.466Z,31.15
2022-09-10T16:00:08.174Z,31.14
2022-09-10T16:02:35.004Z,31.15
2022-09-10T16:05:01.727Z,30.98
2022-09-10T16:07:29.890Z,30.88
2022-09-10T16:09:58.881Z,30.86
2022-09-10T16:12:28.657Z,30.63
2022-09-10T16:14:55.568Z,30.68
2022-09-10T16:17:22.277Z,30.69
2022-09-10T16:19:49.840Z,30.56
2022-09-10T16:22:20.438Z,30.55
2022-09-10T16:24:47.713Z,30.52
2022-09-10T16:27:16.342Z,30.70
2022-09-10T16:29:47.416Z,30.59
2022-09-10T16:32:14.149Z,30.49
2022-09-10T16:34:41.104Z,30.51
2022-09-10T16:37:08.724Z,30.33
2022-09-10T16:39:35.430Z,30.16
2022-09-10T16:42:02.259Z,30.39
2022-09-10T16:44:29.076Z,30.15
2022-09-10T16:46:57.804Z,29.95
2022-09-10T16:49:24.535Z,29.85
2022-09-10T16:51:51.170Z,30.18
2022-09-10T16:54:22.489Z,30.06
2022-09-10T16:56:49.380Z,29.76
2022-09-10T16:59:21.615Z,29.29
2022-09-10T17:01:49.613Z,28.90
2022-09-10T17:04:22.285Z,28.35
2022-09-10T17:06:51.487Z,28.14
2022-09-10T17:09:18.220Z,27.26
2022-09-10T17:11:44.927Z,27.50
2022-09-10T17:14:11.670Z,27.37
2022-09-10T17:16:43.645Z,27.19
2022-09-10T17:19:23.798Z,27.02
2022-09-10T17:21:55.201Z,27.20
2022-09-10T17:24:24.379Z,27.20
2022-09-10T17:26:52.090Z,26.85
2022-09-10T17:29:20.711Z,26.75
2022-09-10T17:31:47.703Z,26.74
2022-09-10T17:34:16.142Z,26.40
2022-09-10T17:36:45.484Z,26.25
2022-09-10T17:39:13.027Z,26.16
2022-09-10T17:41:40.875Z,25.99
2022-09-10T17:44:08.351Z,25.94
2022-09-10T17:46:36.288Z,25.46
2022-09-10T17:49:04.493Z,25.54
2022-09-10T17:51:34.199Z,25.44
2022-09-10T17:54:03.448Z,25.23
2022-09-10T17:56:31.111Z,25.11
2022-09-10T17:59:03.636Z,25.10
2022-09-10T18:01:40.286Z,24.90
2022-09-10T18:04:08.666Z,25.08
2022-09-10T18:06:37.029Z,24.94
2022-09-10T18:09:05.241Z,24.81
2022-09-10T18:11:37.018Z,24.70
2022-09-10T18:14:04.422Z,24.24
2022-09-10T18:16:33.933Z,24.60
2022-09-10T18:19:14.533Z,24.63
2022-09-10T18:21:42.126Z,24.65
2022-09-10T18:24:14.874Z,24.76
2022-09-10T18:26:44.446Z,24.75
2022-09-10T18:29:24.610Z,24.97
2022-09-10T18:31:54.044Z,24.69
2022-09-10T18:34:24.222Z,24.75
2022-09-10T18:36:54.727Z,24.78
2022-09-10T18:39:23.284Z,24.70
2022-09-10T18:41:50.607Z,24.76
2022-09-10T18:44:21.900Z,24.72
2022-09-10T18:46:50.647Z,24.73
2022-09-10T18:49:21.165Z,24.53
2022-09-10T18:51:48.817Z,24.54
2022-09-10T18:54:18.486Z,24.42
2022-09-10T18:56:48.207Z,24.48
2022-09-10T18:59:20.303Z,24.26
2022-09-10T19:01:50.766Z,24.31
2022-09-10T19:04:24.413Z,24.13
2022-09-10T19:06:56.112Z,24.02
2022-09-10T19:09:28.200Z,24.13
2022-09-10T19:11:57.222Z,24.12
2022-09-10T19:14:26.462Z,24.04
2022-09-10T19:16:55.001Z,24.03
2022-09-10T19:19:23.554Z,23.87
2022-09-10T19:21:56.008Z,23.82
2022-09-10T19:24:53.640Z,23.96
2022-09-10T19:27:19.792Z,24.04
2022-09-10T19:29:47.437Z,23.84
2022-09-10T19:32:15.260Z,23.75
2022-09-10T19:34:42.237Z,23.80
2022-09-10T19:37:09.850Z,23.85
2022-09-10T19:39:36.555Z,23.86
2022-09-10T19:42:05.423Z,23.93
2022-09-10T19:44:33.694Z,23.96
2022-09-10T19:47:00.531Z,24.13
2022-09-10T19:49:27.328Z,24.02
2022-09-10T19:51:54.169Z,24.03
2022-09-10T19:54:22.829Z,24.06
2022-09-10T19:56:49.961Z,24.09
2022-09-10T19:59:17.168Z,24.10
2022-09-10T20:01:46.159Z,24.10
2022-09-10T20:04:14.322Z,24.13
2022-09-10T20:06:42.743Z,24.15
2022-09-10T20:09:10.282Z,24.19
2022-09-10T20:11:37.939Z,23.94
2022-09-10T20:14:10.749Z,24.05
2022-09-10T20:16:38.914Z,24.10
2022-09-10T20:19:06.686Z,24.08
2022-09-10T20:21:35.453Z,24.07
2022-09-10T20:24:02.217Z,24.17
2022-09-10T20:26:33.866Z,24.19
2022-09-10T20:29:04.289Z,24.18
2022-09-10T20:31:33.621Z,24.04
2022-09-10T20:34:03.665Z,24.04
2022-09-10T20:36:31.658Z,23.94
2022-09-10T20:38:58.638Z,23.98
2022-09-10T20:41:30.395Z,24.01
2022-09-10T20:43:59.463Z,23.97
2022-09-10T20:46:28.229Z,23.95
2022-09-10T20:48:56.976Z,23.97
2022-09-10T20:51:23.826Z,23.68
2022-09-10T20:53:50.575Z,23.67
2022-09-10T20:56:19.390Z,23.82
2022-09-10T20:58:47.313Z,23.92
2022-09-10T21:01:19.919Z,24.07
2022-09-10T21:03:48.712Z,24.18
2022-09-10T21:06:19.680Z,24.13
2022-09-10T21:08:48.028Z,24.09
2022-09-10T21:11:17.766Z,24.23
2022-09-10T21:13:47.035Z,24.28
2022-09-10T21:16:16.478Z,24.20
2022-09-10T21:18:52.096Z,24.31
2022-09-10T21:21:22.848Z,24.02
2022-09-10T21:23:51.599Z,23.87
2022-09-10T21:26:20.851Z,24.09
2022-09-10T21:28:48.283Z,24.03
2022-09-10T21:31:15.144Z,23.93
2022-09-10T21:33:42.935Z,23.89
2022-09-10T21:36:15.722Z,23.87
2022-09-10T21:38:46.690Z,23.75
2022-09-10T21:41:16.115Z,23.70
2022-09-10T21:43:45.386Z,23.29
2022-09-10T21:46:13.683Z,23.76
2022-09-10T21:48:42.577Z,23.77
2022-09-10T21:51:15.139Z,23.82
2022-09-10T21:53:43.238Z,23.89
2022-09-10T21:56:15.919Z,23.87
2022-09-10T21:58:44.845Z,23.87
2022-09-10T22:01:13.461Z,23.91
2022-09-10T22:03:40.468Z,23.80
2022-09-10T22:06:14.793Z,23.84
2022-09-10T22:08:44.258Z,23.97
2022-09-10T22:11:18.980Z,24.06
2022-09-10T22:13:52.066Z,24.12
2022-09-10T22:16:20.009Z,24.05
2022-09-10T22:18:47.104Z,24.02
2022-09-10T22:21:13.949Z,23.96
2022-09-10T22:23:40.788Z,23.75
2022-09-10T22:26:16.327Z,24.00
2022-09-10T22:28:43.868Z,23.55
2022-09-10T22:31:15.453Z,23.57
2022-09-10T22:33:44.384Z,23.84
2022-09-10T22:36:13.663Z,24.03
2022-09-10T22:38:41.840Z,24.08
2022-09-10T22:41:10.496Z,23.99
2022-09-10T22:43:38.632Z,23.92
2022-09-10T22:46:09.080Z,23.93
2022-09-10T22:48:40.352Z,23.85
2022-09-10T22:51:09.545Z,23.84
2022-09-10T22:53:36.220Z,24.14
2022-09-10T22:56:03.090Z,24.19
2022-09-10T22:58:31.211Z,24.40
2022-09-10T23:01:04.256Z,24.59
2022-09-10T23:03:31.236Z,24.45
2022-09-10T23:06:08.537Z,24.54
2022-09-10T23:08:44.379Z,24.20
2022-09-10T23:11:16.639Z,24.23
2022-09-10T23:13:47.221Z,24.49
2022-09-10T23:16:15.654Z,24.37
2022-09-10T23:18:43.976Z,24.02
2022-09-10T23:21:10.990Z,23.90
2022-09-10T23:23:37.832Z,23.93
2022-09-10T23:26:09.957Z,23.92
2022-09-10T23:28:37.212Z,23.99
2022-09-10T23:31:14.266Z,24.06
2022-09-10T23:33:43.245Z,24.28
2022-09-10T23:36:14.351Z,24.29
2022-09-10T23:38:43.114Z,24.43
2022-09-10T23:41:17.809Z,24.39
2022-09-10T23:43:45.519Z,24.41
2022-09-10T23:46:12.775Z,24.34
2022-09-10T23:48:40.127Z,24.42
2022-09-10T23:51:07.041Z,24.58
2022-09-10T23:53:33.746Z,24.67
2022-09-10T23:56:02.922Z,24.76
2022-09-10T23:58:30.174Z,24.71
